Time;durP1;ratioP1;P1;durP2;ratioP2;P2;SDS_P1;SDS_P2;PMS_P1;PMS_P2;Temp;Humidity;BMP_temperature;BMP_pressure;BME280_temperature;BME280_humidity;BME280_pressure;Samples;Min_cycle;Max_cycle;Signal;HPM_P1;HPM_P2
2022/04/09 00:01:14;;;;;;;0.43;0.43;;;;;;;8.37;54.11;100555.91;5078111;22;20041;-77
2022/04/09 00:03:41;;;;;;;0.10;0.10;;;;;;;8.38;54.06;100562.91;5065702;28;20086;-77
2022/04/09 00:06:07;;;;;;;0.30;0.30;;;;;;;8.32;54.65;100563.00;5069594;28;20029;-77
2022/04/09 00:08:33;;;;;;;0.10;0.10;;;;;;;8.31;55.07;100576.25;5069102;28;20436;-77
2022/04/09 00:10:59;;;;;;;0.10;0.10;;;;;;;8.26;54.71;100578.94;5055524;28;20482;-76
2022/04/09 00:13:25;;;;;;;0.00;0.00;;;;;;;8.32;55.28;100584.13;5054291;28;20040;-77
2022/04/09 00:15:51;;;;;;;0.10;0.10;;;;;;;8.19;55.32;100586.09;5048160;28;20033;-77
2022/04/09 00:18:17;;;;;;;0.08;0.08;;;;;;;8.25;54.99;100591.28;5053320;28;20456;-77
2022/04/09 00:20:43;;;;;;;0.10;0.10;;;;;;;8.23;55.60;100592.19;5049696;28;20097;-77
2022/04/09 00:23:10;;;;;;;0.10;0.10;;;;;;;8.22;55.67;100599.25;5048422;28;20493;-77
2022/04/09 00:25:36;;;;;;;0.10;0.10;;;;;;;8.21;55.72;100608.06;5048303;28;20040;-77
2022/04/09 00:28:03;;;;;;;0.10;0.10;;;;;;;8.31;54.92;100603.53;5052487;28;20029;-77
2022/04/09 00:30:29;;;;;;;0.00;0.00;;;;;;;8.29;55.20;100605.31;5048142;28;20036;-78
2022/04/09 00:32:55;;;;;;;0.08;0.08;;;;;;;8.32;54.99;100610.53;5047308;28;20037;-77
2022/04/09 00:35:21;;;;;;;0.10;0.10;;;;;;;8.31;54.97;100608.81;5056957;28;20028;-78
2022/04/09 00:37:48;;;;;;;0.10;0.10;;;;;;;8.32;55.30;100613.16;5040546;28;20029;-77
2022/04/09 00:40:19;;;;;;;0.10;0.10;;;;;;;8.38;55.01;100615.72;5055508;28;20029;-77
2022/04/09 00:42:46;;;;;;;0.10;0.10;;;;;;;8.34;55.44;100619.31;5058065;28;20028;-76
2022/04/09 00:45:12;;;;;;;0.25;0.25;;;;;;;8.26;55.16;100616.78;5053468;28;20397;-77
2022/04/09 00:47:39;;;;;;;0.10;0.10;;;;;;;8.28;55.47;100619.38;5049825;28;20037;-77
2022/04/09 00:50:07;;;;;;;0.10;0.10;;;;;;;8.30;54.93;100622.00;5055026;28;20112;-78
2022/04/09 00:52:38;;;;;;;0.30;0.28;;;;;;;8.31;54.92;100636.94;5056924;28;20036;-77
2022/04/09 00:55:05;;;;;;;0.10;0.10;;;;;;;8.23;55.16;100631.78;5057371;28;20531;-77
2022/04/09 00:57:35;;;;;;;0.10;0.10;;;;;;;8.28;55.33;100629.09;5051509;28;20112;-77
2022/04/09 01:00:09;;;;;;;0.03;0.03;;;;;;;8.24;56.14;100639.66;5058623;28;20488;-77
2022/04/09 01:02:40;;;;;;;0.00;0.00;;;;;;;8.23;56.54;100647.63;5053001;28;20033;-77
2022/04/09 01:05:07;;;;;;;0.10;0.10;;;;;;;8.25;56.06;100646.69;5052285;28;20497;-78
2022/04/09 01:07:34;;;;;;;0.10;0.10;;;;;;;8.16;56.19;100648.59;5047487;28;20025;-78
2022/04/09 01:10:02;;;;;;;0.10;0.10;;;;;;;8.09;56.87;100655.72;5049271;28;20032;-77
2022/04/09 01:12:29;;;;;;;0.98;0.65;;;;;;;8.06;57.39;100671.56;5051847;28;20056;-75
2022/04/09 01:14:55;;;;;;;0.50;0.50;;;;;;;8.07;57.01;100668.94;5055193;28;20035;-78
2022/04/09 01:17:21;;;;;;;2.50;0.68;;;;;;;8.16;56.60;100672.34;5053427;28;20025;-77
2022/04/09 01:19:47;;;;;;;0.10;0.10;;;;;;;8.16;56.67;100678.50;5049847;28;20039;-78
2022/04/09 01:22:13;;;;;;;0.10;0.10;;;;;;;8.17;57.00;100687.28;5056113;28;20103;-77
2022/04/09 01:24:39;;;;;;;0.10;0.10;;;;;;;8.24;56.33;100681.03;5054243;28;20061;-77
2022/04/09 01:27:06;;;;;;;0.10;0.10;;;;;;;8.18;55.99;100692.53;5055083;28;20025;-77
2022/04/09 01:29:32;;;;;;;0.10;0.10;;;;;;;8.23;56.14;100701.28;5049953;28;20411;-77
2022/04/09 01:31:58;;;;;;;0.10;0.10;;;;;;;8.31;55.82;100711.75;5051371;28;20503;-77
2022/04/09 01:34:24;;;;;;;0.20;0.20;;;;;;;8.12;56.51;100739.25;5059162;28;20115;-77
2022/04/09 01:36:50;;;;;;;0.10;0.10;;;;;;;8.06;56.26;100748.09;5046945;28;20029;-77
2022/04/09 01:39:18;;;;;;;0.10;0.10;;;;;;;8.00;57.07;100735.88;5054169;28;20546;-77
2022/04/09 01:41:45;;;;;;;0.10;0.10;;;;;;;7.96;57.03;100720.94;5051989;28;20040;-77
2022/04/09 01:44:11;;;;;;;0.10;0.10;;;;;;;7.62;56.99;100729.22;5054464;28;20033;-77
2022/04/09 01:46:40;;;;;;;0.10;0.10;;;;;;;7.69;56.74;100730.00;5051133;28;20169;-77
2022/04/09 01:49:07;;;;;;;1.27;1.27;;;;;;;7.54;57.39;100737.19;5047287;28;20028;-76
2022/04/09 01:51:33;;;;;;;0.10;0.10;;;;;;;7.50;57.21;100737.22;5050412;28;20037;-77
2022/04/09 01:53:59;;;;;;;0.10;0.10;;;;;;;7.53;56.93;100739.88;5052973;28;20033;-78
2022/04/09 01:56:25;;;;;;;0.10;0.10;;;;;;;7.37;58.14;100754.94;5050966;28;20339;-77
2022/04/09 01:58:51;;;;;;;0.10;0.10;;;;;;;7.51;57.33;100746.91;5056152;28;20119;-77
2022/04/09 02:01:18;;;;;;;0.10;0.10;;;;;;;7.48;57.29;100752.19;5043033;28;20035;-77
2022/04/09 02:03:44;;;;;;;0.10;0.10;;;;;;;7.41;58.34;100759.28;5050395;28;20035;-77
2022/04/09 02:06:11;;;;;;;0.10;0.10;;;;;;;7.47;57.65;100742.56;5054062;28;20033;-77
2022/04/09 02:08:37;;;;;;;0.10;0.10;;;;;;;7.42;58.21;100761.03;5055575;28;20500;-76
2022/04/09 02:11:03;;;;;;;0.10;0.10;;;;;;;7.50;57.52;100753.94;5048264;28;20132;-77
2022/04/09 02:13:30;;;;;;;0.10;0.10;;;;;;;7.52;57.55;100751.28;5052769;28;20033;-77
2022/04/09 02:15:56;;;;;;;0.13;0.13;;;;;;;7.39;57.83;100756.66;5054475;28;20032;-77
2022/04/09 02:18:22;;;;;;;8.48;1.55;;;;;;;7.48;57.25;100763.63;5047824;28;20033;-77
2022/04/09 02:20:48;;;;;;;0.10;0.10;;;;;;;7.57;57.30;100767.94;5059633;28;20043;-77
2022/04/09 02:23:14;;;;;;;0.10;0.10;;;;;;;7.51;57.64;100768.00;5049784;28;20048;-78
2022/04/09 02:25:40;;;;;;;0.10;0.10;;;;;;;7.56;57.44;100779.38;5061983;28;20064;-77
2022/04/09 02:28:06;;;;;;;0.10;0.10;;;;;;;7.49;57.05;100775.91;5047515;28;20055;-77
2022/04/09 02:30:32;;;;;;;0.10;0.10;;;;;;;7.48;56.27;100782.06;5058817;28;20479;-77
2022/04/09 02:32:58;;;;;;;0.10;0.10;;;;;;;7.57;56.70;100789.03;5053881;28;20040;-77
2022/04/09 02:35:26;;;;;;;0.10;0.10;;;;;;;7.59;56.22;100788.13;5059492;28;20064;-77
2022/04/09 02:37:52;;;;;;;0.10;0.10;;;;;;;7.57;56.36;100786.41;5059012;28;20033;-76
2022/04/09 02:40:19;;;;;;;0.10;0.10;;;;;;;7.50;57.18;100793.50;5052629;28;20033;-77
2022/04/09 02:42:46;;;;;;;0.00;0.00;;;;;;;7.57;56.94;100789.91;5046517;28;20096;-77
2022/04/09 02:45:13;;;;;;;0.10;0.10;;;;;;;7.61;57.20;100801.28;5052676;28;20112;-77
2022/04/09 02:47:40;;;;;;;0.10;0.10;;;;;;;7.59;57.04;100797.81;5049275;28;20432;-77
2022/04/09 02:50:07;;;;;;;0.10;0.10;;;;;;;7.65;57.21;100792.50;5055182;28;20079;-77
2022/04/09 02:52:36;;;;;;;0.10;0.10;;;;;;;7.67;57.59;100800.38;5055515;28;20024;-77
2022/04/09 02:55:05;;;;;;;0.10;0.10;;;;;;;7.70;57.19;100805.63;5061916;28;20040;-76
2022/04/09 02:57:31;;;;;;;0.20;0.20;;;;;;;7.62;57.68;100824.16;5045879;28;20493;-77
2022/04/09 02:59:57;;;;;;;0.10;0.10;;;;;;;7.66;57.84;100807.41;5042272;28;20040;-77
2022/04/09 03:02:24;;;;;;;0.10;0.10;;;;;;;7.65;58.08;100807.41;5051554;28;20028;-77
2022/04/09 03:04:52;;;;;;;0.10;0.10;;;;;;;7.57;58.65;100824.16;5052059;28;20111;-77
2022/04/09 03:07:18;;;;;;;0.10;0.10;;;;;;;7.68;58.61;100815.31;5049527;28;20126;-77
2022/04/09 03:09:44;;;;;;;0.10;0.10;;;;;;;7.66;58.47;100820.59;5052209;28;20032;-77
2022/04/09 03:12:11;;;;;;;0.10;0.10;;;;;;;7.69;58.21;100814.41;5047127;28;20025;-76
2022/04/09 03:14:37;;;;;;;0.10;0.10;;;;;;;7.75;58.70;100825.78;5057611;28;20090;-76
2022/04/09 03:17:03;;;;;;;0.40;0.40;;;;;;;7.73;58.27;100819.66;5054640;28;20040;-77
2022/04/09 03:19:29;;;;;;;0.10;0.10;;;;;;;7.69;58.03;100830.22;5050836;28;20143;-77
2022/04/09 03:21:55;;;;;;;0.10;0.10;;;;;;;7.77;57.47;100826.63;5055490;28;20113;-77
2022/04/09 03:24:21;;;;;;;0.10;0.10;;;;;;;7.85;57.03;100831.88;5060836;28;20525;-77
2022/04/09 03:26:47;;;;;;;0.10;0.10;;;;;;;7.85;56.92;100831.88;5055553;28;20025;-77
2022/04/09 03:29:13;;;;;;;3.35;2.90;;;;;;;7.90;56.88;100840.63;5045564;28;20404;-77
2022/04/09 03:31:39;;;;;;;0.10;0.10;;;;;;;7.93;56.77;100842.34;5056488;28;20025;-76
2022/04/09 03:34:06;;;;;;;0.32;0.32;;;;;;;7.90;56.53;100839.72;5056976;28;20115;-77
2022/04/09 03:36:32;;;;;;;0.00;0.00;;;;;;;7.75;56.51;100846.91;5057693;28;20451;-77
2022/04/09 03:38:58;;;;;;;0.10;0.10;;;;;;;7.78;56.11;100852.13;5055324;28;20112;-77
2022/04/09 03:41:24;;;;;;;0.10;0.10;;;;;;;7.86;55.73;100856.47;5058275;28;20036;-77
2022/04/09 03:43:51;;;;;;;0.10;0.10;;;;;;;7.83;56.40;100864.44;5058539;28;20516;-77
2022/04/09 03:46:17;;;;;;;0.10;0.10;;;;;;;7.81;56.06;100861.78;5054915;28;20084;-78
2022/04/09 03:48:43;;;;;;;0.10;0.10;;;;;;;7.79;55.93;100863.56;5058753;28;20086;-77
2022/04/09 03:51:11;;;;;;;0.57;0.47;;;;;;;7.87;55.66;100866.16;5047366;28;20025;-77
2022/04/09 03:53:37;;;;;;;0.10;0.10;;;;;;;7.88;55.43;100874.03;5046081;28;20032;-78
2022/04/09 03:56:04;;;;;;;0.08;0.08;;;;;;;7.87;55.67;100872.28;5053438;28;20038;-77
2022/04/09 03:58:31;;;;;;;1.10;1.10;;;;;;;8.00;55.53;100874.81;5065850;28;20043;-77
2022/04/09 04:00:57;;;;;;;0.55;0.55;;;;;;;7.96;54.85;100876.59;5068436;28;20025;-77
2022/04/09 04:03:25;;;;;;;0.10;0.10;;;;;;;7.97;54.79;100883.63;5057166;28;20476;-77
2022/04/09 04:05:51;;;;;;;0.10;0.10;;;;;;;8.07;54.63;100887.06;5061062;28;20028;-77
2022/04/09 04:08:17;;;;;;;0.10;0.10;;;;;;;8.03;54.37;100883.59;5049524;28;20037;-77
2022/04/09 04:10:43;;;;;;;0.10;0.10;;;;;;;8.06;54.48;100882.69;5049785;28;20044;-77
2022/04/09 04:13:11;;;;;;;0.10;0.10;;;;;;;8.08;54.64;100880.91;5053796;28;20083;-77
2022/04/09 04:15:37;;;;;;;0.10;0.10;;;;;;;8.02;54.68;100895.03;5055169;28;20098;-77
2022/04/09 04:18:03;;;;;;;0.10;0.10;;;;;;;8.03;55.32;100880.94;5047410;28;20049;-77
2022/04/09 04:20:30;;;;;;;0.10;0.10;;;;;;;8.07;55.08;100884.44;5054279;28;20032;-78
2022/04/09 04:22:56;;;;;;;0.10;0.10;;;;;;;8.07;54.78;100890.59;5049193;28;20396;-77
2022/04/09 04:25:22;;;;;;;0.10;0.10;;;;;;;8.04;55.77;100895.88;5055890;28;20032;-77
2022/04/09 04:27:49;;;;;;;2.00;1.90;;;;;;;8.04;56.00;100901.16;5049063;28;20033;-77
2022/04/09 04:30:16;;;;;;;0.10;0.10;;;;;;;8.00;55.75;100904.72;5047352;28;20404;-77
2022/04/09 04:32:43;;;;;;;0.10;0.10;;;;;;;8.03;56.59;100915.25;5051536;28;20033;-77
2022/04/09 04:35:10;;;;;;;0.10;0.10;;;;;;;8.17;55.78;100923.03;5058669;28;20080;-77
2022/04/09 04:37:41;;;;;;;0.10;0.10;;;;;;;8.13;55.85;100915.19;5044895;28;20041;-77
2022/04/09 04:40:08;;;;;;;0.10;0.10;;;;;;;8.09;56.79;100922.25;5054841;28;20029;-77
2022/04/09 04:42:35;;;;;;;2.63;2.08;;;;;;;8.09;56.61;100925.75;5051470;28;20047;-77
2022/04/09 04:45:01;;;;;;;0.10;0.10;;;;;;;8.09;56.77;100933.66;5057173;28;20024;-76
2022/04/09 04:47:27;;;;;;;0.10;0.10;;;;;;;8.06;56.81;100936.34;5051753;28;20021;-77
2022/04/09 04:49:53;;;;;;;0.00;0.00;;;;;;;8.18;55.95;100945.03;5053121;28;20025;-77
2022/04/09 04:52:19;;;;;;;0.75;0.75;;;;;;;8.12;56.46;100938.03;5051812;28;20033;-77
2022/04/09 04:54:45;;;;;;;0.10;0.10;;;;;;;8.17;56.05;100954.72;5051919;28;20090;-77
2022/04/09 04:57:12;;;;;;;0.28;0.28;;;;;;;8.15;56.15;100952.97;5048198;28;20108;-77
2022/04/09 04:59:38;;;;;;;0.10;0.10;;;;;;;8.22;55.82;100946.75;5055538;28;20037;-76
2022/04/09 05:02:05;;;;;;;0.10;0.10;;;;;;;8.28;55.59;100957.28;5053657;28;20070;-76
2022/04/09 05:04:31;;;;;;;4.82;0.93;;;;;;;8.30;55.68;100962.53;5053920;28;20515;-76
2022/04/09 05:06:57;;;;;;;0.10;0.10;;;;;;;8.28;55.38;100974.88;5043213;28;20041;-76
2022/04/09 05:09:24;;;;;;;0.10;0.10;;;;;;;8.44;54.84;100981.78;5046086;28;20025;-77
2022/04/09 05:11:50;;;;;;;0.10;0.10;;;;;;;8.49;55.27;100993.19;5051731;28;20048;-77
2022/04/09 05:14:16;;;;;;;0.38;0.38;;;;;;;8.40;56.08;101052.22;5055017;28;20039;-77
2022/04/09 05:16:42;;;;;;;1.17;1.08;;;;;;;8.12;54.77;101019.00;5046500;28;20033;-78
2022/04/09 05:19:08;;;;;;;0.10;0.10;;;;;;;7.49;55.69;101001.75;5049866;28;20021;-78
2022/04/09 05:21:34;;;;;;;0.10;0.10;;;;;;;7.16;56.75;100995.75;5047102;28;20033;-78
2022/04/09 05:24:00;;;;;;;0.05;0.05;;;;;;;6.99;57.54;100995.78;5051254;28;20068;-77
2022/04/09 05:26:26;;;;;;;0.10;0.10;;;;;;;6.75;59.17;101003.78;5052775;28;20037;-77
2022/04/09 05:28:54;;;;;;;0.35;0.35;;;;;;;6.78;58.39;101003.75;5059897;28;20029;-77
2022/04/09 05:31:27;;;;;;;0.10;0.10;;;;;;;6.79;58.29;101012.50;5053226;28;20111;-77
2022/04/09 05:33:54;;;;;;;0.15;0.15;;;;;;;6.78;58.97;101009.00;5051223;28;20029;-77
2022/04/09 05:36:21;;;;;;;2.50;2.30;;;;;;;6.88;58.70;101019.53;5050991;28;20400;-77
2022/04/09 05:38:47;;;;;;;0.10;0.10;;;;;;;6.94;58.64;101020.41;5047391;28;20028;-77
2022/04/09 05:41:13;;;;;;;0.10;0.10;;;;;;;6.94;59.21;101022.16;5047050;28;20041;-77
2022/04/09 05:43:39;;;;;;;0.10;0.10;;;;;;;7.07;58.93;101031.78;5052334;28;20033;-77
2022/04/09 05:46:05;;;;;;;0.10;0.10;;;;;;;7.14;58.81;101032.66;5044962;28;20056;-77
2022/04/09 05:48:32;;;;;;;0.10;0.10;;;;;;;7.21;59.55;101028.25;5041524;28;20044;-77
2022/04/09 05:50:58;;;;;;;0.10;0.10;;;;;;;7.39;59.08;101037.81;5047408;28;20529;-76
2022/04/09 05:53:24;;;;;;;0.10;0.10;;;;;;;7.53;58.39;101040.44;5053948;28;20029;-77
2022/04/09 05:55:50;;;;;;;0.10;0.10;;;;;;;7.59;58.54;101045.69;5051377;28;20067;-77
2022/04/09 05:58:16;;;;;;;0.10;0.10;;;;;;;7.67;58.91;101046.50;5047473;28;20026;-78
2022/04/09 06:03:08;;;;;;;0.10;0.10;;;;;;;7.87;58.61;101043.75;5067822;22;20494;-76
2022/04/09 06:05:34;;;;;;;0.10;0.10;;;;;;;7.84;57.90;101066.63;5050067;28;20021;-74
2022/04/09 06:08:01;;;;;;;0.10;0.10;;;;;;;7.72;57.92;101084.28;5060418;28;20035;-77
2022/04/09 06:10:27;;;;;;;0.08;0.08;;;;;;;7.84;58.26;101082.47;5054294;28;20582;-76
2022/04/09 06:12:53;;;;;;;0.05;0.05;;;;;;;7.71;58.08;101081.66;5049326;28;20059;-76
2022/04/09 06:15:19;;;;;;;0.10;0.10;;;;;;;7.51;58.45;101076.47;5053567;28;20040;-77
2022/04/09 06:17:45;;;;;;;0.10;0.10;;;;;;;7.48;58.72;101073.81;5037025;28;20052;-78
2022/04/09 06:20:11;;;;;;;0.10;0.10;;;;;;;7.46;59.50;101076.47;5040393;28;20020;-76
2022/04/09 06:22:38;;;;;;;0.10;0.10;;;;;;;7.48;59.77;101071.19;5051482;28;20044;-78
2022/04/09 06:25:04;;;;;;;0.10;0.10;;;;;;;7.51;60.43;101079.09;5047443;28;20043;-78
2022/04/09 06:27:33;;;;;;;0.10;0.10;;;;;;;7.53;60.55;101069.44;5044123;28;20018;-78
2022/04/09 06:30:02;;;;;;;0.10;0.10;;;;;;;7.60;59.78;101079.94;5048206;28;20067;-77
2022/04/09 06:32:28;;;;;;;0.10;0.10;;;;;;;7.55;60.97;101089.63;5039416;28;20074;-78
2022/04/09 06:34:54;;;;;;;0.35;0.35;;;;;;;7.59;61.44;101109.84;5050553;28;20538;-77
2022/04/09 06:37:20;;;;;;;0.10;0.10;;;;;;;7.63;60.88;101123.00;5043721;28;20029;-77
2022/04/09 06:39:46;;;;;;;0.40;0.40;;;;;;;7.65;61.13;101119.50;5042403;28;20037;-77
2022/04/09 06:42:12;;;;;;;0.10;0.10;;;;;;;7.65;60.68;101124.78;5028048;28;20479;-78
2022/04/09 06:44:38;;;;;;;0.10;0.10;;;;;;;7.66;61.18;101125.63;5045589;28;20033;-77
2022/04/09 06:47:08;;;;;;;0.20;0.20;;;;;;;7.66;61.59;101147.59;5039515;28;20446;-76
2022/04/09 06:49:36;;;;;;;0.20;0.20;;;;;;;7.62;62.71;101140.59;5044656;28;20037;-76
2022/04/09 06:52:02;;;;;;;0.10;0.10;;;;;;;7.56;63.04;101145.88;5035672;28;20044;-77
2022/04/09 06:54:28;;;;;;;0.10;0.10;;;;;;;7.55;62.49;101134.47;5032402;28;20025;-77
2022/04/09 06:56:54;;;;;;;0.10;0.10;;;;;;;7.50;62.17;101132.72;5031769;28;20041;-76
2022/04/09 06:59:20;;;;;;;0.10;0.10;;;;;;;7.48;63.58;101142.38;5037252;28;20033;-76
2022/04/09 07:01:46;;;;;;;0.10;0.10;;;;;;;7.53;63.27;101151.19;5044912;28;20041;-77
2022/04/09 07:04:12;;;;;;;0.00;0.00;;;;;;;7.58;63.25;101149.41;5042194;28;20024;-78
2022/04/09 07:06:38;;;;;;;0.10;0.10;;;;;;;7.60;64.10;101152.88;5042176;28;20059;-78
2022/04/09 07:09:05;;;;;;;0.10;0.10;;;;;;;7.59;64.75;101164.34;5038196;28;20072;-78
2022/04/09 07:11:31;;;;;;;0.13;0.13;;;;;;;7.63;62.99;101155.53;5033467;28;20036;-77
2022/04/09 07:13:58;;;;;;;0.10;0.10;;;;;;;7.71;64.34;101158.13;5036979;28;20434;-78
2022/04/09 07:16:24;;;;;;;0.20;0.20;;;;;;;7.87;63.72;101158.97;5034416;28;20021;-75
2022/04/09 07:18:50;;;;;;;0.05;0.05;;;;;;;7.94;64.16;101166.00;5036073;28;20090;-79
2022/04/09 07:21:16;;;;;;;0.10;0.10;;;;;;;8.02;64.33;101172.09;5032183;28;20032;-75
2022/04/09 07:23:42;;;;;;;0.10;0.10;;;;;;;8.04;63.85;101175.59;5031902;28;20040;-76
2022/04/09 07:26:08;;;;;;;0.10;0.10;;;;;;;8.00;63.72;101171.25;5045956;28;20070;-77
2022/04/09 07:28:35;;;;;;;0.10;0.10;;;;;;;8.01;63.33;101175.63;5042402;28;20099;-76
2022/04/09 07:31:01;;;;;;;0.00;0.00;;;;;;;7.98;62.67;101173.00;5045036;28;20196;-77
2022/04/09 07:33:27;;;;;;;0.10;0.10;;;;;;;8.07;62.09;101170.34;5049719;28;20333;-76
2022/04/09 07:35:53;;;;;;;0.10;0.10;;;;;;;8.09;61.70;101178.25;5045014;28;20043;-78
2022/04/09 07:38:20;;;;;;;0.10;0.10;;;;;;;8.04;61.75;101185.31;5033251;28;20029;-76
2022/04/09 07:40:46;;;;;;;0.10;0.10;;;;;;;8.06;61.91;101194.97;5043361;28;20450;-77
2022/04/09 07:43:12;;;;;;;0.10;0.10;;;;;;;8.12;62.11;101190.53;5014973;28;20018;-77
2022/04/09 07:45:38;;;;;;;0.10;0.10;;;;;;;8.07;62.19;101203.75;5038278;28;20116;-76
2022/04/09 07:48:05;;;;;;;0.10;0.10;;;;;;;8.19;62.03;101195.78;5036429;28;20034;-77
2022/04/09 07:50:33;;;;;;;0.10;0.10;;;;;;;8.34;62.44;101208.03;5029984;28;20104;-76
2022/04/09 07:53:00;;;;;;;0.10;0.10;;;;;;;8.46;61.40;101203.56;5035286;28;20062;-76
2022/04/09 07:55:26;;;;;;;0.10;0.10;;;;;;;8.60;61.13;101206.16;5039588;28;20025;-77
2022/04/09 07:57:54;;;;;;;0.10;0.10;;;;;;;8.62;60.83;101205.25;5049739;28;20029;-78
2022/04/09 08:00:22;;;;;;;0.45;0.45;;;;;;;8.66;60.75;101216.69;5049511;28;20488;-78
2022/04/09 08:02:48;;;;;;;0.20;0.20;;;;;;;8.73;59.27;101229.88;5038146;28;20091;-76
2022/04/09 08:05:18;;;;;;;0.10;0.10;;;;;;;8.83;59.18;101209.53;5039288;28;20025;-78
2022/04/09 08:07:45;;;;;;;0.10;0.10;;;;;;;8.91;58.76;101214.78;5037073;28;20017;-75
2022/04/09 08:10:12;;;;;;;0.10;0.10;;;;;;;9.07;58.16;101228.75;5040078;28;20084;-77
2022/04/09 08:12:39;;;;;;;0.00;0.00;;;;;;;9.13;57.41;101233.13;5039764;28;20087;-77
2022/04/09 08:15:06;;;;;;;0.10;0.10;;;;;;;9.10;57.56;101265.75;5036495;28;20021;-78
2022/04/09 08:17:32;;;;;;;0.10;0.10;;;;;;;8.84;56.90;101264.13;5039484;28;20060;-76
2022/04/09 08:20:00;;;;;;;0.10;0.10;;;;;;;8.38;58.61;101270.50;5042229;28;20025;-77
2022/04/09 08:22:27;;;;;;;0.00;0.00;;;;;;;8.03;59.24;101271.50;5034943;28;20388;-75
2022/04/09 08:24:53;;;;;;;0.10;0.10;;;;;;;7.80;59.06;101287.38;5039037;28;20106;-78
2022/04/09 08:27:19;;;;;;;0.13;0.13;;;;;;;7.61;59.92;101307.59;5039534;28;20026;-77
2022/04/09 08:29:46;;;;;;;0.10;0.10;;;;;;;7.54;60.37;101303.19;5044434;28;20112;-78
2022/04/09 08:32:13;;;;;;;0.10;0.10;;;;;;;7.37;60.56;101335.72;5048643;28;20025;-77
2022/04/09 08:34:39;;;;;;;0.10;0.10;;;;;;;7.04;60.29;101332.16;5035950;28;20029;-77
2022/04/09 08:37:07;;;;;;;0.10;0.10;;;;;;;6.67;61.61;101331.13;5029081;28;20041;-77
2022/04/09 08:39:34;;;;;;;0.10;0.10;;;;;;;6.35;61.89;101334.53;5036523;28;20403;-78
2022/04/09 08:42:02;;;;;;;0.10;0.10;;;;;;;6.18;62.39;101339.69;5036798;28;20048;-77
2022/04/09 08:44:29;;;;;;;0.10;0.10;;;;;;;6.01;63.33;101324.66;5037316;28;20059;-78
2022/04/09 08:46:56;;;;;;;0.20;0.20;;;;;;;6.15;63.50;101295.81;5033850;28;20119;-77
2022/04/09 08:49:24;;;;;;;0.10;0.10;;;;;;;6.27;63.70;101292.38;5034283;28;20402;-76
2022/04/09 08:51:51;;;;;;;0.15;0.15;;;;;;;6.35;63.57;101298.53;5030570;28;20033;-77
2022/04/09 08:54:18;;;;;;;0.10;0.10;;;;;;;6.56;63.47;101281.97;5028398;28;20036;-77
2022/04/09 08:56:45;;;;;;;0.10;0.10;;;;;;;6.66;63.34;101287.28;5026727;28;20033;-77
2022/04/09 08:59:11;;;;;;;0.10;0.10;;;;;;;6.75;62.85;101285.56;5034093;28;20078;-77
2022/04/09 09:01:37;;;;;;;0.10;0.10;;;;;;;6.98;63.59;101284.72;5032188;28;20033;-77
2022/04/09 09:04:04;;;;;;;0.10;0.10;;;;;;;7.15;63.84;101291.78;5040176;28;20058;-77
2022/04/09 09:06:35;;;;;;;0.10;0.10;;;;;;;7.48;63.64;101309.38;5038335;28;20091;-77
2022/04/09 09:09:03;;;;;;;0.80;0.80;;;;;;;7.75;64.21;101307.59;5043638;28;20517;-77
2022/04/09 09:11:43;;;;;;;0.10;0.10;;;;;;;8.01;63.12;101304.94;5041345;28;20057;-76
2022/04/09 09:14:09;;;;;;;0.10;0.10;;;;;;;8.33;63.04;101298.69;5036552;28;20442;-76
2022/04/09 09:16:35;;;;;;;0.10;0.10;;;;;;;8.55;62.91;101296.00;5032733;28;20048;-82
2022/04/09 09:19:04;;;;;;;0.00;0.00;;;;;;;8.69;62.82;101293.28;5041024;28;20041;-83
2022/04/09 09:21:31;;;;;;;0.10;0.10;;;;;;;8.90;62.46;101290.53;5038014;28;20315;-82
2022/04/09 09:24:13;;;;;;;0.00;0.00;;;;;;;9.09;61.74;101310.69;5034500;28;20037;-83
2022/04/09 09:26:40;;;;;;;0.08;0.08;;;;;;;9.11;60.77;101303.63;5036966;28;20028;-76
2022/04/09 09:29:08;;;;;;;0.10;0.10;;;;;;;9.17;60.94;101330.00;5033792;28;20033;-76
2022/04/09 09:31:43;;;;;;;0.10;0.10;;;;;;;9.05;58.64;101328.34;5037714;28;20037;-77
2022/04/09 09:36:49;;;;;;;0.10;0.10;;;;;;;8.92;58.65;101330.16;5136300;27;20150;-76
2022/04/09 09:39:17;;;;;;;1.38;1.27;;;;;;;8.87;58.00;101335.47;5124994;27;20058;-76
2022/04/09 09:41:49;;;;;;;0.10;0.10;;;;;;;8.81;58.66;101337.25;5126719;27;20035;-76
2022/04/09 09:44:17;;;;;;;0.10;0.10;;;;;;;8.80;58.32;101338.13;5129273;27;20027;-76
2022/04/09 09:46:45;;;;;;;0.10;0.10;;;;;;;8.74;59.26;101333.78;5129795;27;20043;-76
2022/04/09 09:49:12;;;;;;;0.00;0.00;;;;;;;8.77;59.21;101335.53;5133540;27;20066;-76
2022/04/09 09:51:39;;;;;;;0.00;0.00;;;;;;;8.91;59.28;101333.69;5128883;27;20039;-77
2022/04/09 09:54:10;;;;;;;0.10;0.10;;;;;;;9.10;58.90;101336.22;5129089;27;20080;-77
2022/04/09 09:56:39;;;;;;;0.00;0.00;;;;;;;9.22;58.94;101336.13;5127586;27;20039;-76
2022/04/09 09:59:08;;;;;;;0.08;0.08;;;;;;;9.33;58.99;101344.00;5126950;27;20024;-77
2022/04/09 10:01:40;;;;;;;0.38;0.38;;;;;;;9.52;59.17;101348.28;5126792;27;20027;-77
2022/04/09 10:04:08;;;;;;;0.10;0.10;;;;;;;9.69;57.04;101344.63;5125698;27;20019;-77
2022/04/09 10:06:36;;;;;;;0.00;0.00;;;;;;;9.98;56.25;101349.69;5128564;27;20019;-76
2022/04/09 10:09:05;;;;;;;0.10;0.10;;;;;;;10.18;55.19;101344.19;5129191;27;20110;-77
2022/04/09 10:11:36;;;;;;;0.00;0.00;;;;;;;10.28;54.48;101344.97;5126182;27;20032;-77
2022/04/09 10:14:04;;;;;;;0.03;0.03;;;;;;;10.54;54.95;101375.59;5130337;27;20028;-77
2022/04/09 10:16:35;;;;;;;0.20;0.20;;;;;;;10.35;53.17;101388.13;5119119;27;20023;-77
2022/04/09 10:19:04;;;;;;;0.10;0.10;;;;;;;10.24;52.91;101376.78;5133186;27;20023;-77
2022/04/09 10:21:33;;;;;;;0.10;0.10;;;;;;;9.96;52.79;101391.16;5129938;27;20031;-77
2022/04/09 10:24:04;;;;;;;0.00;0.00;;;;;;;9.92;53.26;101378.84;5123933;27;20080;-77
2022/04/09 10:26:30;;;;;;;0.00;0.00;;;;;;;9.99;53.73;101377.00;5130868;27;20050;-78
2022/04/09 10:29:05;;;;;;;0.00;0.00;;;;;;;10.20;53.72;101374.19;5151559;27;20109;-78
2022/04/09 10:34:10;;;;;;;0.00;0.00;;;;;;;10.14;53.43;101379.53;5109912;27;20404;-77
2022/04/09 10:41:57;;;;;;;0.10;0.10;;;;;;;10.43;54.84;101390.75;5067368;28;20087;-83
2022/04/09 10:47:19;;;;;;;0.10;0.10;;;;;;;10.53;55.07;101373.88;5113429;27;1183151;-83
2022/04/09 10:52:47;;;;;;;0.00;0.00;;;;;;;10.79;53.27;101415.06;5063611;28;20057;-82
2022/04/09 10:57:59;;;;;;;0.00;0.00;;;;;;;10.65;51.77;101423.19;5078404;28;20053;-84
2022/04/09 11:07:00;;;;;;;0.00;0.00;;;;;;;10.18;53.35;101433.31;5109913;27;20441;-83
2022/04/09 11:09:38;;;;;;;0.00;0.00;;;;;;;10.20;52.94;101436.84;5060432;28;1173146;-83
2022/04/09 11:12:04;;;;;;;0.10;0.10;;;;;;;10.21;53.55;101433.31;5083894;28;20040;-84
2022/04/09 11:14:40;;;;;;;0.00;0.00;;;;;;;9.74;54.68;101445.16;5072070;28;20059;-83
2022/04/09 11:25:35;;;;;;;0.10;0.10;;;;;;;9.54;56.43;101425.88;5089479;27;1226611;-84
2022/04/09 11:28:18;;;;;;;0.00;0.00;;;;;;;9.58;57.01;101426.72;5129621;28;20035;-83
2022/04/09 11:31:04;;;;;;;9.65;0.90;;;;;;;9.66;56.86;101424.91;5121822;28;20024;-85
2022/04/09 11:33:31;;;;;;;0.10;0.10;;;;;;;9.63;57.00;101424.03;5133248;28;20028;-82
2022/04/09 11:35:58;;;;;;;0.10;0.10;;;;;;;9.70;57.09;101420.47;5134968;28;20031;-85
2022/04/09 11:38:26;;;;;;;0.05;0.05;;;;;;;9.59;55.53;101438.19;5132389;27;20077;-86
2022/04/09 11:40:54;;;;;;;0.10;0.10;;;;;;;9.66;54.89;101422.25;5126797;28;20031;-86
2022/04/09 11:43:22;;;;;;;0.10;0.10;;;;;;;9.85;54.48;101425.63;5125373;28;20032;-83
2022/04/09 11:45:48;;;;;;;0.10;0.10;;;;;;;10.13;54.64;101420.13;5127747;28;20039;-85
2022/04/09 11:48:18;;;;;;;0.10;0.10;;;;;;;10.36;53.95;101435.81;5119092;28;20028;-83
2022/04/09 11:50:45;;;;;;;0.10;0.10;;;;;;;10.44;51.59;101442.84;5122040;27;20776;-84
2022/04/09 11:53:15;;;;;;;0.00;0.00;;;;;;;10.52;52.16;101459.53;5126207;27;20050;-82
2022/04/09 11:55:42;;;;;;;0.00;0.00;;;;;;;10.50;51.26;101450.72;5126930;27;20028;-83
2022/04/09 11:58:11;;;;;;;0.10;0.10;;;;;;;10.48;49.15;101447.19;5135842;28;20039;-85
2022/04/09 12:00:41;;;;;;;0.10;0.10;;;;;;;10.54;49.20;101447.13;5133870;28;20074;-85
2022/04/09 12:03:08;;;;;;;0.10;0.10;;;;;;;10.66;48.46;101441.72;5116876;22;20531;-79
2022/04/09 12:05:39;;;;;;;0.00;0.00;;;;;;;10.90;48.32;101444.13;5059764;28;20463;-79
2022/04/09 12:08:11;;;;;;;0.03;0.03;;;;;;;10.96;47.81;101455.50;5062783;28;20032;-78